Redby, Minnesota
Current Conditions -  °F | °C
As of 3:34 PM on Thursday 23 Oct 2014 (Local Time) from KVWU Reporting Station
Clear Clear  
Wind Chill: 64°   Ceiling: Unl
Heat Index: 64°   Visibility: 10mi
Dew Point: 43°   Wind: 6mph
Humidity: 45%   Direction: 220°SW
Pressure: 29.85"   Gusts: 16mph
Location:  47.88°N, 94.91°W
Report Text: KVWU 232034Z AUTO 22005G14KT 10SM CLR 18/06 A2985 RMK AO2
Loading
Personal Weather Stations






























Interactive Weather Map
Tropical Storm Tracking
New forecast layout! Learn more

10-Day Weather Forecast

Advertisements
Track Severe Weather on mobile